Island Supplier — WCZ2444 — position and weather

sailwx.info

Track history (hours):
 
Tides and Currents Weather Stations Pressure Air Temp Water Temp Dewpoint Dewpoint Depression Visibility Wind Speed Wind Dir Waves Ship Positions

Island Supplier

Owner: Santa Catalina Island Resort Services, Inc., AVALON, CA. More information available from US FCC via Universal Licensing System and Coast Guard Vessel Documentation Center.

Last reported at 2016-Feb-12 20:29 UTC. Time now 2016-Feb-13 10:54 UTC.
Position N 33°29' W 118°36'.

Length 22 m; draft 1 m.

Type: Cargo ship. MMSI: 366765690.

Date/timePositionNaut miles runAvg speedWind from/ knotsBaromVisibWave heightAir tempDewpointWater temp
2016-Feb-12 20:29N 33°29' W 118°36'7 6.8
2016-Feb-12 19:31N 33°33' W 118°30'7 7.5
2016-Feb-12 18:33N 33°37' W 118°22'7 7.2
2016-Feb-12 17:33N 33°41' W 118°15'3 3.3
2016-Feb-12 16:33N 33°44' W 118°16'0 0.3
2016-Feb-12 15:32N 33°44' W 118°17'1 0.4
2016-Feb-12 13:16N 33°45' W 118°16'4 6.2
2016-Feb-12 12:33N 33°41' W 118°14'7 6.6
2016-Feb-12 11:33N 33°36' W 118°19'7 7.2
2016-Feb-12 10:32N 33°31' W 118°25'4 0.2
2016-Feb-11 18:13N 33°28' W 118°29'12 7.1
2016-Feb-11 16:28N 33°38' W 118°19'6 6.4
2016-Feb-11 15:33N 33°42' W 118°15'8 0.3
2016-Feb-10 12:29N 33°35' W 118°20'7 7.1
2016-Feb-10 11:31N 33°30' W 118°25'  
Track history (hours):
 
Tides and Currents Weather Stations Pressure Air Temp Water Temp Dewpoint Dewpoint Depression Visibility Wind Speed Wind Dir Waves Ship Positions

Island Supplier

Owner: Santa Catalina Island Resort Services, Inc., AVALON, CA. More information available from US FCC via Universal Licensing System and Coast Guard Vessel Documentation Center.

Last reported at 2016-Feb-12 20:29 UTC. Time now 2016-Feb-13 10:54 UTC.
Position N 33°29' W 118°36'.

Length 22 m; draft 1 m.

Type: Cargo ship. MMSI: 366765690.

Date/timePositionNaut miles runAvg speedWind from/ knotsBaromVisibWave heightAir tempDewpointWater temp
2016-Feb-12 20:29N 33°29' W 118°36'7 6.8
2016-Feb-12 19:31N 33°33' W 118°30'7 7.5
2016-Feb-12 18:33N 33°37' W 118°22'7 7.2
2016-Feb-12 17:33N 33°41' W 118°15'3 3.3
2016-Feb-12 16:33N 33°44' W 118°16'0 0.3
2016-Feb-12 15:32N 33°44' W 118°17'1 0.4
2016-Feb-12 13:16N 33°45' W 118°16'4 6.2
2016-Feb-12 12:33N 33°41' W 118°14'7 6.6
2016-Feb-12 11:33N 33°36' W 118°19'7 7.2
2016-Feb-12 10:32N 33°31' W 118°25'4 0.2
2016-Feb-11 18:13N 33°28' W 118°29'12 7.1
2016-Feb-11 16:28N 33°38' W 118°19'6 6.4
2016-Feb-11 15:33N 33°42' W 118°15'8 0.3
2016-Feb-10 12:29N 33°35' W 118°20'7 7.1
2016-Feb-10 11:31N 33°30' W 118°25'  

Dump ship's entire track history